createdAt,value
2018-11-26T00:00:36.255Z,81.09
2018-11-26T00:03:09.030Z,81.23
2018-11-26T00:05:38.996Z,81.35
2018-11-26T00:08:12.419Z,80.29
2018-11-26T00:10:52.327Z,80.18
2018-11-26T00:13:21.463Z,80.65
2018-11-26T00:15:50.491Z,80.78
2018-11-26T00:18:19.541Z,81.50
2018-11-26T00:20:48.538Z,81.74
2018-11-26T00:23:17.648Z,81.37
2018-11-26T00:25:46.706Z,81.29
2018-11-26T00:28:15.770Z,81.67
2018-11-26T00:30:44.560Z,82.24
2018-11-26T00:33:13.573Z,82.87
2018-11-26T00:35:42.841Z,83.13
2018-11-26T00:38:11.685Z,82.78
2018-11-26T00:40:40.735Z,82.22
2018-11-26T00:43:09.658Z,82.52
2018-11-26T00:45:38.719Z,82.50
2018-11-26T00:48:07.663Z,82.76
2018-11-26T00:50:36.839Z,82.98
2018-11-26T00:53:06.548Z,82.13
2018-11-26T00:55:35.722Z,82.51
2018-11-26T00:58:04.713Z,81.58
2018-11-26T01:00:33.807Z,81.27
2018-11-26T01:03:02.992Z,81.70
2018-11-26T01:05:35.622Z,82.56
2018-11-26T01:08:04.843Z,82.02
2018-11-26T01:10:33.922Z,81.75
2018-11-26T01:13:03.057Z,81.61
2018-11-26T01:15:31.982Z,81.61
2018-11-26T01:18:01.243Z,81.57
2018-11-26T01:20:30.298Z,81.19
2018-11-26T01:22:59.414Z,80.86
2018-11-26T01:25:28.590Z,81.03
2018-11-26T01:27:57.621Z,80.73
2018-11-26T01:30:26.820Z,80.88
2018-11-26T01:32:55.775Z,80.40
2018-11-26T01:35:24.941Z,80.52
2018-11-26T01:37:53.999Z,81.27
2018-11-26T01:40:27.662Z,81.81
2018-11-26T01:42:56.545Z,82.17
2018-11-26T01:45:25.644Z,82.58
2018-11-26T01:47:54.643Z,83.46
2018-11-26T01:50:23.778Z,83.23
2018-11-26T01:52:52.925Z,84.05
2018-11-26T01:55:21.735Z,84.04
2018-11-26T01:57:50.807Z,83.73
2018-11-26T02:00:21.936Z,84.03
2018-11-26T02:02:51.132Z,83.26
2018-11-26T02:05:20.269Z,83.03
2018-11-26T02:07:49.158Z,82.65
2018-11-26T02:10:19.367Z,82.03
2018-11-26T02:12:48.526Z,82.45
2018-11-26T02:15:38.292Z,82.45
2018-11-26T02:18:08.227Z,81.56
2018-11-26T02:20:37.166Z,81.94
2018-11-26T02:23:06.410Z,82.32
2018-11-26T02:25:35.577Z,81.85
2018-11-26T02:28:04.370Z,81.26
2018-11-26T02:30:33.344Z,81.36
2018-11-26T02:33:02.448Z,81.25
2018-11-26T02:35:31.235Z,81.32
2018-11-26T02:38:00.526Z,80.55
2018-11-26T02:40:30.724Z,80.25
2018-11-26T02:42:59.566Z,80.93
2018-11-26T02:45:30.254Z,80.67
2018-11-26T02:47:59.216Z,80.50
2018-11-26T02:50:28.357Z,80.93
2018-11-26T02:52:57.369Z,80.69
2018-11-26T02:55:27.274Z,80.85
2018-11-26T02:57:56.422Z,81.36
2018-11-26T03:00:25.559Z,81.78
2018-11-26T03:02:54.629Z,81.83
2018-11-26T03:05:27.156Z,82.14
2018-11-26T03:07:56.316Z,82.73
2018-11-26T03:10:25.619Z,83.19
2018-11-26T03:12:54.478Z,83.61
2018-11-26T03:15:23.586Z,83.86
2018-11-26T03:17:52.507Z,83.97
2018-11-26T03:20:21.460Z,83.95
2018-11-26T03:22:50.366Z,84.05
2018-11-26T03:25:19.506Z,83.08
2018-11-26T03:27:48.682Z,83.05
2018-11-26T03:30:19.883Z,82.73
2018-11-26T03:32:49.149Z,83.01
2018-11-26T03:35:18.259Z,82.74
2018-11-26T03:37:47.074Z,81.94
2018-11-26T03:40:16.162Z,82.26
2018-11-26T03:42:45.454Z,82.86
2018-11-26T03:45:18.730Z,83.14
2018-11-26T03:47:47.935Z,82.92
2018-11-26T03:50:17.126Z,83.08
2018-11-26T03:52:46.700Z,83.35
2018-11-26T03:55:15.679Z,82.78
2018-11-26T03:57:44.736Z,83.76
2018-11-26T04:00:15.354Z,83.42
2018-11-26T04:02:44.509Z,83.34
2018-11-26T04:05:13.669Z,83.14
2018-11-26T04:07:42.846Z,83.55
2018-11-26T04:10:13.653Z,84.31
2018-11-26T04:12:42.729Z,83.93
2018-11-26T04:15:13.042Z,84.26
2018-11-26T04:17:42.145Z,84.49
2018-11-26T04:20:11.322Z,84.93
2018-11-26T04:22:40.490Z,84.93
2018-11-26T04:25:10.214Z,84.88
2018-11-26T04:27:38.978Z,84.22
2018-11-26T04:30:11.171Z,83.91
2018-11-26T04:32:40.747Z,83.57
2018-11-26T04:35:10.233Z,83.48
2018-11-26T04:37:39.532Z,84.34
2018-11-26T04:40:10.173Z,83.79
2018-11-26T04:42:39.337Z,84.51
2018-11-26T04:45:09.791Z,84.30
2018-11-26T04:47:38.667Z,84.70
2018-11-26T04:50:10.125Z,84.62
2018-11-26T04:52:39.152Z,84.89
2018-11-26T04:55:09.057Z,85.39
2018-11-26T04:57:42.172Z,86.64
2018-11-26T05:00:10.058Z,86.71
2018-11-26T05:02:39.374Z,86.87
2018-11-26T05:05:08.984Z,87.38
2018-11-26T05:07:37.835Z,87.05
2018-11-26T05:10:08.661Z,86.94
2018-11-26T05:12:37.890Z,86.89
2018-11-26T05:15:08.426Z,86.67
2018-11-26T05:17:37.346Z,86.75
2018-11-26T05:20:08.302Z,87.06
2018-11-26T05:22:37.434Z,86.59
2018-11-26T05:25:08.047Z,86.93
2018-11-26T05:27:37.126Z,86.34
2018-11-26T05:30:08.049Z,86.61
2018-11-26T05:32:37.203Z,85.71
2018-11-26T05:35:07.467Z,85.86
2018-11-26T05:37:36.552Z,85.78
2018-11-26T05:40:07.448Z,85.71
2018-11-26T05:42:36.715Z,85.62
2018-11-26T05:45:07.346Z,85.22
2018-11-26T05:47:36.487Z,84.29
2018-11-26T05:50:06.878Z,85.36
2018-11-26T05:52:36.042Z,85.28
2018-11-26T05:55:05.282Z,85.37
2018-11-26T05:57:34.498Z,84.78
2018-11-26T06:00:03.300Z,85.00
2018-11-26T06:02:32.223Z,84.89
2018-11-26T06:05:01.398Z,84.79
2018-11-26T06:07:30.509Z,85.65
2018-11-26T06:09:59.618Z,85.48
2018-11-26T06:12:28.452Z,85.66
2018-11-26T06:14:57.503Z,85.72
2018-11-26T06:17:26.532Z,86.00
2018-11-26T06:19:55.430Z,85.12
2018-11-26T06:22:24.430Z,86.15
2018-11-26T06:24:53.611Z,84.53
2018-11-26T06:27:22.723Z,84.66
2018-11-26T06:29:51.904Z,84.94
2018-11-26T06:32:21.004Z,84.64
2018-11-26T06:34:50.086Z,85.15
2018-11-26T06:37:19.302Z,84.48
2018-11-26T06:39:48.166Z,84.31
2018-11-26T06:42:17.344Z,84.14
2018-11-26T06:44:46.382Z,84.26
2018-11-26T06:47:15.623Z,84.65
2018-11-26T06:49:44.580Z,85.27
2018-11-26T06:52:13.458Z,84.82
2018-11-26T06:54:42.644Z,84.03
2018-11-26T06:57:11.694Z,84.39
2018-11-26T06:59:40.885Z,84.44
2018-11-26T07:02:09.759Z,84.34
2018-11-26T07:04:38.814Z,84.29
2018-11-26T07:07:07.892Z,83.92
2018-11-26T07:09:37.076Z,84.18
2018-11-26T07:12:06.577Z,84.33
2018-11-26T07:14:35.674Z,83.38
2018-11-26T07:17:04.803Z,83.58
2018-11-26T07:19:33.853Z,83.56
2018-11-26T07:22:02.847Z,83.45
2018-11-26T07:24:31.899Z,83.26
2018-11-26T07:27:01.084Z,83.67
2018-11-26T07:29:30.037Z,83.63
2018-11-26T07:31:58.923Z,83.10
2018-11-26T07:34:28.087Z,83.17
2018-11-26T07:36:57.206Z,83.37
2018-11-26T07:39:26.349Z,82.10
2018-11-26T07:41:55.302Z,82.74
2018-11-26T07:44:24.570Z,82.95
2018-11-26T07:46:53.796Z,82.86
2018-11-26T07:49:23.394Z,82.62
2018-11-26T07:51:51.832Z,81.57
2018-11-26T07:54:21.014Z,82.41
2018-11-26T07:56:50.055Z,82.63
2018-11-26T07:59:19.162Z,82.64
2018-11-26T08:01:48.195Z,82.91
2018-11-26T08:04:16.955Z,83.47
2018-11-26T08:06:46.073Z,83.48
2018-11-26T08:09:15.180Z,83.98
2018-11-26T08:11:44.183Z,84.13
2018-11-26T08:14:13.378Z,84.56
2018-11-26T08:16:42.741Z,83.93
2018-11-26T08:19:11.978Z,83.83
2018-11-26T08:21:40.915Z,84.14
2018-11-26T08:24:10.250Z,83.99
2018-11-26T08:26:39.302Z,84.24
2018-11-26T08:29:08.347Z,84.34
2018-11-26T08:31:37.645Z,84.48
2018-11-26T08:34:07.141Z,84.43
2018-11-26T08:36:40.910Z,84.12
2018-11-26T08:39:16.458Z,83.99
2018-11-26T08:41:50.570Z,84.52
2018-11-26T08:44:28.500Z,84.06
2018-11-26T08:47:03.885Z,84.15
2018-11-26T08:49:34.128Z,83.85
2018-11-26T08:52:03.310Z,83.82
2018-11-26T08:54:32.154Z,83.84
2018-11-26T08:57:00.966Z,83.45
2018-11-26T08:59:30.188Z,82.87
2018-11-26T09:02:01.187Z,82.49
2018-11-26T09:04:32.187Z,81.94
2018-11-26T09:07:01.318Z,81.20
2018-11-26T09:09:32.966Z,80.08
2018-11-26T09:11:59.583Z,79.30
2018-11-26T09:14:28.547Z,80.08
2018-11-26T09:16:57.835Z,79.90
2018-11-26T09:19:27.008Z,79.38
2018-11-26T09:21:56.182Z,78.53
2018-11-26T09:24:25.287Z,78.52
2018-11-26T09:26:54.147Z,78.48
2018-11-26T09:29:23.159Z,78.31
2018-11-26T09:31:52.234Z,79.24
2018-11-26T09:34:21.421Z,79.26
2018-11-26T09:36:50.721Z,78.86
2018-11-26T09:39:19.543Z,79.61
2018-11-26T09:41:48.335Z,79.26
2018-11-26T09:44:17.294Z,79.79
2018-11-26T09:46:46.471Z,79.70
2018-11-26T09:49:15.602Z,79.65
2018-11-26T09:51:44.475Z,79.86
2018-11-26T09:54:13.644Z,79.59
2018-11-26T09:56:42.740Z,80.20
2018-11-26T09:59:11.876Z,80.07
2018-11-26T10:01:41.005Z,80.58
2018-11-26T10:04:09.914Z,80.34
2018-11-26T10:06:38.831Z,80.42
2018-11-26T10:09:10.435Z,81.16
2018-11-26T10:11:39.634Z,80.95
2018-11-26T10:14:09.233Z,81.88
2018-11-26T10:16:38.238Z,81.45
2018-11-26T10:19:07.478Z,82.17
2018-11-26T10:21:36.682Z,80.98
2018-11-26T10:24:05.958Z,80.38
2018-11-26T10:26:35.126Z,80.40
2018-11-26T10:29:04.360Z,80.94
2018-11-26T10:31:33.643Z,81.08
2018-11-26T10:34:02.562Z,82.17
2018-11-26T10:36:31.831Z,81.68
2018-11-26T10:39:00.691Z,81.03
2018-11-26T10:41:29.563Z,80.22
2018-11-26T10:43:58.535Z,79.49
2018-11-26T10:46:27.727Z,78.81
2018-11-26T10:48:56.714Z,78.62
2018-11-26T10:51:25.754Z,78.79
2018-11-26T10:53:54.899Z,79.17
2018-11-26T10:56:24.062Z,80.11
2018-11-26T10:58:52.986Z,80.12
2018-11-26T11:01:27.212Z,80.50
2018-11-26T11:03:56.194Z,80.04
2018-11-26T11:06:25.406Z,80.24
2018-11-26T11:08:54.648Z,80.41
2018-11-26T11:11:23.865Z,80.56
2018-11-26T11:13:52.854Z,80.25
2018-11-26T11:16:22.074Z,79.95
2018-11-26T11:18:51.390Z,79.48
2018-11-26T11:21:20.376Z,79.61
2018-11-26T11:23:49.628Z,79.54
2018-11-26T11:26:19.046Z,79.02
2018-11-26T11:28:47.924Z,79.39
2018-11-26T11:31:16.900Z,79.55
2018-11-26T11:33:45.969Z,80.32
2018-11-26T11:36:15.104Z,80.94
2018-11-26T11:38:44.381Z,81.05
2018-11-26T11:41:13.127Z,81.41
2018-11-26T11:43:41.968Z,82.07
2018-11-26T11:46:10.968Z,82.12
2018-11-26T11:48:40.081Z,82.25
2018-11-26T11:51:09.156Z,82.06
2018-11-26T11:53:38.191Z,82.30
2018-11-26T11:56:07.551Z,81.79
2018-11-26T11:58:36.676Z,81.96
2018-11-26T12:01:10.522Z,82.01
2018-11-26T12:03:35.146Z,80.89
2018-11-26T12:06:04.324Z,81.56
2018-11-26T12:08:33.272Z,80.84
2018-11-26T12:11:02.122Z,80.72
2018-11-26T12:13:31.104Z,80.97
2018-11-26T12:16:00.069Z,79.62
2018-11-26T12:18:29.151Z,79.00
2018-11-26T12:20:57.972Z,78.31
2018-11-26T12:23:26.837Z,78.39
2018-11-26T12:25:56.075Z,78.16
2018-11-26T12:28:25.172Z,78.27
2018-11-26T12:30:54.258Z,77.71
2018-11-26T12:33:23.371Z,77.35
2018-11-26T12:35:52.551Z,77.71
2018-11-26T12:38:21.792Z,77.76
2018-11-26T12:40:50.961Z,77.96
2018-11-26T12:43:20.248Z,78.13
2018-11-26T12:45:49.229Z,78.27
2018-11-26T12:48:18.172Z,78.05
2018-11-26T12:50:47.043Z,76.92
2018-11-26T12:53:16.361Z,77.52
2018-11-26T12:55:45.486Z,77.40
2018-11-26T12:58:14.616Z,76.50
2018-11-26T13:00:43.747Z,76.58
2018-11-26T13:03:13.948Z,76.95
2018-11-26T13:05:42.940Z,77.06
2018-11-26T13:08:12.069Z,76.10
2018-11-26T13:10:41.092Z,76.86
2018-11-26T13:13:11.009Z,75.24
2018-11-26T13:15:40.330Z,75.10
2018-11-26T13:18:09.612Z,75.79
2018-11-26T13:20:38.909Z,77.03
2018-11-26T13:23:09.221Z,76.56
2018-11-26T13:25:41.677Z,77.31
2018-11-26T13:28:09.201Z,77.66
2018-11-26T13:30:39.474Z,78.32
2018-11-26T13:33:12.841Z,78.34
2018-11-26T13:35:41.936Z,77.77
2018-11-26T13:38:11.168Z,76.80
2018-11-26T13:40:40.417Z,76.48
2018-11-26T13:43:10.646Z,76.58
2018-11-26T13:45:43.672Z,76.43
2018-11-26T13:48:14.055Z,76.24
2018-11-26T13:50:46.936Z,76.47
2018-11-26T13:53:16.005Z,75.40
2018-11-26T13:55:44.864Z,75.69
2018-11-26T13:58:14.140Z,76.37
2018-11-26T14:00:43.031Z,77.64
2018-11-26T14:03:12.252Z,78.56
2018-11-26T14:05:41.343Z,78.84
2018-11-26T14:08:10.425Z,79.04
2018-11-26T14:10:39.341Z,79.12
2018-11-26T14:13:10.924Z,79.05
2018-11-26T14:15:40.037Z,79.07
2018-11-26T14:18:09.166Z,79.87
2018-11-26T14:20:38.432Z,79.72
2018-11-26T14:23:07.789Z,79.42
2018-11-26T14:25:37.068Z,79.30
2018-11-26T14:28:06.395Z,79.64
2018-11-26T14:30:35.699Z,79.37
2018-11-26T14:33:04.647Z,79.66
2018-11-26T14:35:33.727Z,79.35
2018-11-26T14:38:04.502Z,80.12
2018-11-26T14:40:39.381Z,79.78
2018-11-26T14:43:08.477Z,79.92
2018-11-26T14:45:37.512Z,79.75
2018-11-26T14:48:06.910Z,80.37
2018-11-26T14:50:35.970Z,80.18
2018-11-26T14:53:06.209Z,80.25
2018-11-26T14:55:36.792Z,80.56
2018-11-26T14:58:06.464Z,81.16
2018-11-26T15:00:35.553Z,81.11
2018-11-26T15:03:05.349Z,80.85
2018-11-26T15:05:34.459Z,80.57
2018-11-26T15:08:03.592Z,80.26
2018-11-26T15:10:32.921Z,80.31
2018-11-26T15:13:02.063Z,80.52
2018-11-26T15:15:30.868Z,80.94
2018-11-26T15:18:00.104Z,80.61
2018-11-26T15:20:30.210Z,80.19
2018-11-26T15:23:00.812Z,80.63
2018-11-26T15:25:32.840Z,80.24
2018-11-26T15:28:07.741Z,80.44
2018-11-26T15:30:36.593Z,80.09
2018-11-26T15:33:05.880Z,80.44
2018-11-26T15:35:35.868Z,80.22
2018-11-26T15:38:05.051Z,80.37
2018-11-26T15:40:33.944Z,80.91
2018-11-26T15:43:03.020Z,80.18
2018-11-26T15:45:31.982Z,80.68
2018-11-26T15:48:02.204Z,80.48
2018-11-26T15:50:31.439Z,81.07
2018-11-26T15:53:00.320Z,81.02
2018-11-26T15:55:29.295Z,80.55
2018-11-26T15:57:58.616Z,80.82
2018-11-26T16:00:27.481Z,80.57
2018-11-26T16:02:56.696Z,81.22
2018-11-26T16:05:28.940Z,81.28
2018-11-26T16:08:00.322Z,80.60
2018-11-26T16:10:29.445Z,80.23
2018-11-26T16:12:59.877Z,80.54
2018-11-26T16:15:37.563Z,80.87
2018-11-26T16:18:09.367Z,81.03
2018-11-26T16:20:38.538Z,81.05
2018-11-26T16:23:09.243Z,80.90
2018-11-26T16:25:39.895Z,80.77
2018-11-26T16:28:09.253Z,80.77
2018-11-26T16:30:38.422Z,80.78
2018-11-26T16:33:08.055Z,80.69
2018-11-26T16:35:37.202Z,81.06
2018-11-26T16:38:06.898Z,81.31
2018-11-26T16:40:35.956Z,81.42
2018-11-26T16:43:05.184Z,81.46
2018-11-26T16:45:34.370Z,81.11
2018-11-26T16:48:03.820Z,81.38
2018-11-26T16:50:33.967Z,81.12
2018-11-26T16:53:03.118Z,80.92
2018-11-26T16:55:32.662Z,80.59
2018-11-26T16:58:01.775Z,80.32
2018-11-26T17:00:31.432Z,80.74
2018-11-26T17:03:02.239Z,80.47
2018-11-26T17:05:38.264Z,81.35
2018-11-26T17:08:08.843Z,81.34
2018-11-26T17:10:37.756Z,81.24
2018-11-26T17:13:06.931Z,81.36
2018-11-26T17:15:36.280Z,81.27
2018-11-26T17:18:06.197Z,82.75
2018-11-26T17:20:35.928Z,82.10
2018-11-26T17:23:05.144Z,81.47
2018-11-26T17:25:34.460Z,82.20
2018-11-26T17:28:04.397Z,82.06
2018-11-26T17:30:33.541Z,82.16
2018-11-26T17:33:04.485Z,82.27
2018-11-26T17:35:34.011Z,82.59
2018-11-26T17:38:03.109Z,82.51
2018-11-26T17:40:32.254Z,82.87
2018-11-26T17:43:01.281Z,83.06
2018-11-26T17:45:30.389Z,83.27
2018-11-26T17:48:00.348Z,83.58
2018-11-26T17:50:50.803Z,83.44
2018-11-26T17:53:21.153Z,84.22
2018-11-26T17:55:54.336Z,84.42
2018-11-26T17:58:26.547Z,84.17
2018-11-26T18:01:35.185Z,84.67
2018-11-26T18:04:04.936Z,84.54
2018-11-26T18:06:34.182Z,84.66
2018-11-26T18:09:03.486Z,84.83
2018-11-26T18:11:32.444Z,84.42
2018-11-26T18:14:01.395Z,84.40
2018-11-26T18:16:30.211Z,84.59
2018-11-26T18:18:59.324Z,83.88
2018-11-26T18:21:28.100Z,84.88
2018-11-26T18:23:57.369Z,84.22
2018-11-26T18:26:27.168Z,84.07
2018-11-26T18:28:55.920Z,84.72
2018-11-26T18:31:25.039Z,84.19
2018-11-26T18:33:54.175Z,84.70
2018-11-26T18:36:23.369Z,84.31
2018-11-26T18:38:52.597Z,84.47
2018-11-26T18:41:21.859Z,84.89
2018-11-26T18:43:51.205Z,85.14
2018-11-26T18:46:20.316Z,84.96
2018-11-26T18:48:49.748Z,84.98
2018-11-26T18:51:19.160Z,84.98
2018-11-26T18:53:48.235Z,85.06
2018-11-26T18:56:17.384Z,85.42
2018-11-26T18:58:46.541Z,85.12
2018-11-26T19:01:15.685Z,84.96
2018-11-26T19:03:44.827Z,84.25
2018-11-26T19:06:14.036Z,83.06
2018-11-26T19:08:43.224Z,83.56
2018-11-26T19:11:14.112Z,83.72
2018-11-26T19:14:05.206Z,84.15
2018-11-26T19:16:36.590Z,83.46
2018-11-26T19:19:06.156Z,83.39
2018-11-26T19:21:35.247Z,83.66
2018-11-26T19:24:04.596Z,84.37
2018-11-26T19:26:33.891Z,84.74
2018-11-26T19:29:03.105Z,84.53
2018-11-26T19:31:32.284Z,84.46
2018-11-26T19:34:01.155Z,84.46
2018-11-26T19:36:30.279Z,84.27
2018-11-26T19:38:59.184Z,83.97
2018-11-26T19:41:28.436Z,84.56
2018-11-26T19:43:57.685Z,83.63
2018-11-26T19:46:26.872Z,83.47
2018-11-26T19:48:56.196Z,83.43
2018-11-26T19:51:25.073Z,84.60
2018-11-26T19:53:55.323Z,84.89
2018-11-26T19:56:24.485Z,84.44
2018-11-26T19:58:54.594Z,84.20
2018-11-26T20:01:23.677Z,84.00
2018-11-26T20:03:56.800Z,83.46
2018-11-26T20:06:26.475Z,83.84
2018-11-26T20:08:58.048Z,83.86
2018-11-26T20:11:32.951Z,83.97
2018-11-26T20:13:56.324Z,83.54
2018-11-26T20:16:33.491Z,83.79
2018-11-26T20:19:02.400Z,83.61
2018-11-26T20:21:31.644Z,84.00
2018-11-26T20:24:00.804Z,83.99
2018-11-26T20:26:29.988Z,84.35
2018-11-26T20:28:59.314Z,84.58
2018-11-26T20:31:28.184Z,84.24
2018-11-26T20:33:57.376Z,85.07
2018-11-26T20:36:26.539Z,85.20
2018-11-26T20:38:55.691Z,85.17
2018-11-26T20:41:24.513Z,85.01
2018-11-26T20:43:53.808Z,85.37
2018-11-26T20:46:22.616Z,85.14
2018-11-26T20:48:51.667Z,85.57
2018-11-26T20:51:20.789Z,86.08
2018-11-26T20:53:49.712Z,85.64
2018-11-26T20:56:19.183Z,86.16
2018-11-26T20:58:48.440Z,86.86
2018-11-26T21:01:17.536Z,86.27
2018-11-26T21:03:47.040Z,86.65
2018-11-26T21:06:16.098Z,86.91
2018-11-26T21:08:45.445Z,86.95
2018-11-26T21:11:14.780Z,86.18
2018-11-26T21:13:44.053Z,86.27
2018-11-26T21:16:13.442Z,86.53
2018-11-26T21:18:42.780Z,87.04
2018-11-26T21:21:11.887Z,86.67
2018-11-26T21:23:41.277Z,85.76
2018-11-26T21:26:10.583Z,85.68
2018-11-26T21:28:40.072Z,85.38
2018-11-26T21:31:09.327Z,85.60
2018-11-26T21:33:38.884Z,84.82
2018-11-26T21:36:08.170Z,84.75
2018-11-26T21:38:39.224Z,84.63
2018-11-26T21:41:08.522Z,84.49
2018-11-26T21:43:38.123Z,84.26
2018-11-26T21:46:08.567Z,84.53
2018-11-26T21:48:38.184Z,83.92
2018-11-26T21:51:07.520Z,84.36
2018-11-26T21:53:36.843Z,86.00
2018-11-26T21:56:06.052Z,85.72
2018-11-26T21:58:35.315Z,85.76
2018-11-26T22:01:06.770Z,85.30
2018-11-26T22:03:36.433Z,84.51
2018-11-26T22:06:06.075Z,84.82
2018-11-26T22:08:35.520Z,85.23
2018-11-26T22:11:04.921Z,84.45
2018-11-26T22:13:34.185Z,85.33
2018-11-26T22:16:03.436Z,84.73
2018-11-26T22:18:32.653Z,84.93
2018-11-26T22:21:01.856Z,85.74
2018-11-26T22:23:31.239Z,86.08
2018-11-26T22:26:00.625Z,85.45
2018-11-26T22:28:30.118Z,85.63
2018-11-26T22:30:59.068Z,85.84
2018-11-26T22:33:28.300Z,86.23
2018-11-26T22:35:57.547Z,86.49
2018-11-26T22:38:26.497Z,86.15
2018-11-26T22:40:55.696Z,86.77
2018-11-26T22:43:24.884Z,86.47
2018-11-26T22:45:53.888Z,86.88
2018-11-26T22:48:22.992Z,86.63
2018-11-26T22:50:51.922Z,87.14
2018-11-26T22:53:21.249Z,87.84
2018-11-26T22:55:50.500Z,87.69
2018-11-26T22:58:19.598Z,86.51
2018-11-26T23:00:51.071Z,86.13
2018-11-26T23:03:21.500Z,86.24
2018-11-26T23:05:50.307Z,85.78
2018-11-26T23:08:19.527Z,85.94
2018-11-26T23:10:48.331Z,85.94
2018-11-26T23:13:17.450Z,86.20
2018-11-26T23:15:46.537Z,86.17
2018-11-26T23:18:15.632Z,86.94
2018-11-26T23:20:44.830Z,86.71
2018-11-26T23:23:13.528Z,86.17
2018-11-26T23:25:42.760Z,86.76
2018-11-26T23:28:11.676Z,86.61
2018-11-26T23:30:40.813Z,86.33
2018-11-26T23:33:10.195Z,85.94
2018-11-26T23:35:39.199Z,86.05
2018-11-26T23:38:07.953Z,85.16
2018-11-26T23:40:37.320Z,85.02
2018-11-26T23:43:06.907Z,85.34
2018-11-26T23:45:36.257Z,86.25
2018-11-26T23:48:05.592Z,86.37
2018-11-26T23:50:35.012Z,86.11
2018-11-26T23:53:03.899Z,86.61
2018-11-26T23:55:33.095Z,86.61
2018-11-26T23:58:02.164Z,86.48
